PWSweather.com
Personal Weather Stations
Station Observations
METEOBYST1
BystCZ

BystCZ

Lat: 50.124, Lon: 15.907

Elevation: 243

Station Type:

http://www.meteobyst.cz

Latest ConditionsUpdated 1:03:14 PM GMT+01:01 Sunday, Jan 20, 2019
Currently Today's Max Today's Min Today's Average
Temperature 35.8°F2.1°C 36.3°F2.4°C 19.8°F-6.8°C 25.6°F-3.6°C
Dew Point 26.0°F-3.3°C 28.0°F-2.2°C 18.0°F-7.8°C 22.3°F-5.4°C
Winds 0.9 mph 1.4 kmh 2.7 mph -4.3 kmh - - 0.8 mph 1.3 kmh
Wind Gusts 4.5 mph7.2 kmh 5.4 mph8.7 kmh - -
Humidity 67% 93% 66% 87%
Pressure 30.03 in1016.9 mb 30.10 in1019.3 mb 30.03 in1016.9 mb -
Hour Temp Dew Point Humidity Winds Wind Gusts Pressure Precip Precip Rate Daily Precip Total
01:03 PM 35.8°F2.1°C 26.0°F-3.3°C 67% 0.9 mph 1.4 kmh 4.5 mph7.2 kmh 30.03 in1016.9 mb 0.00 in0.0 mm 0.00 in0.0 mm 0.00 in0.0 mm
12:58 PM 36.0°F2.2°C 26.0°F-3.3°C 66% 1.8 mph 2.9 kmh 3.6 mph5.8 kmh 30.04 in1017.3 mb 0.00 in0.0 mm 0.00 in0.0 mm 0.00 in0.0 mm
12:53 PM 36.3°F2.4°C 27.0°F-2.8°C 68% 2.7 mph 4.3 kmh 5.4 mph8.7 kmh 30.03 in1016.9 mb 0.00 in0.0 mm 0.00 in0.0 mm 0.00 in0.0 mm
12:48 PM 36.0°F2.2°C 27.0°F-2.8°C 68% 0.9 mph 1.4 kmh 3.6 mph5.8 kmh 30.04 in1017.3 mb 0.00 in0.0 mm 0.00 in0.0 mm 0.00 in0.0 mm
12:43 PM 35.4°F1.9°C 26.0°F-3.3°C 69% 0.9 mph NW1.4 kmh NW 2.7 mph4.3 kmh 30.04 in1017.3 mb 0.00 in0.0 mm 0.00 in0.0 mm 0.00 in0.0 mm
12:38 PM 35.4°F1.9°C 26.0°F-3.3°C 69% 1.8 mph 2.9 kmh 3.6 mph5.8 kmh 30.04 in1017.3 mb 0.00 in0.0 mm 0.00 in0.0 mm 0.00 in0.0 mm
12:33 PM 36.0°F2.2°C 27.0°F-2.8°C 69% 1.8 mph W2.9 kmh W 2.7 mph4.3 kmh 30.04 in1017.3 mb 0.00 in0.0 mm 0.00 in0.0 mm 0.00 in0.0 mm
12:28 PM 35.2°F1.8°C 27.0°F-2.8°C 70% 1.8 mph 2.9 kmh 4.5 mph7.2 kmh 30.04 in1017.3 mb 0.00 in0.0 mm 0.00 in0.0 mm 0.00 in0.0 mm
12:23 PM 35.2°F1.8°C 27.0°F-2.8°C 71% 1.8 mph 2.9 kmh 2.7 mph4.3 kmh 30.04 in1017.3 mb 0.00 in0.0 mm 0.00 in0.0 mm 0.00 in0.0 mm
12:18 PM 35.1°F1.7°C 27.0°F-2.8°C 72% 1.8 mph 2.9 kmh 3.6 mph5.8 kmh 30.04 in1017.3 mb 0.00 in0.0 mm 0.00 in0.0 mm 0.00 in0.0 mm
12:13 PM 34.3°F1.3°C 27.0°F-2.8°C 73% 1.8 mph NW2.9 kmh NW 3.6 mph5.8 kmh 30.05 in1017.6 mb 0.00 in0.0 mm 0.00 in0.0 mm 0.00 in0.0 mm
12:08 PM 34.7°F1.5°C 28.0°F-2.2°C 75% 1.8 mph 2.9 kmh 4.5 mph7.2 kmh 30.05 in1017.6 mb 0.00 in0.0 mm 0.00 in0.0 mm 0.00 in0.0 mm
12:03 PM 33.8°F1.0°C 27.0°F-2.8°C 74% 2.7 mph 4.3 kmh 5.4 mph8.7 kmh 30.05 in1017.6 mb 0.00 in0.0 mm 0.00 in0.0 mm 0.00 in0.0 mm
11:58 AM 34.0°F1.1°C 27.0°F-2.8°C 74% 1.8 mph 2.9 kmh 4.5 mph7.2 kmh 30.05 in1017.6 mb 0.00 in0.0 mm 0.00 in0.0 mm 0.00 in0.0 mm
11:53 AM 33.4°F0.8°C 27.0°F-2.8°C 75% 1.8 mph 2.9 kmh 4.5 mph7.2 kmh 30.05 in1017.6 mb 0.00 in0.0 mm 0.00 in0.0 mm 0.00 in0.0 mm
11:48 AM 32.2°F0.1°C 26.0°F-3.3°C 76% 1.8 mph 2.9 kmh 3.6 mph5.8 kmh 30.06 in1017.9 mb 0.00 in0.0 mm 0.00 in0.0 mm 0.00 in0.0 mm
11:43 AM 32.2°F0.1°C 26.0°F-3.3°C 78% 0.9 mph 1.4 kmh 2.7 mph4.3 kmh 30.06 in1017.9 mb 0.00 in0.0 mm 0.00 in0.0 mm 0.00 in0.0 mm
11:38 AM 31.6°F-0.2°C 25.0°F-3.9°C 76% 0.9 mph 1.4 kmh 2.7 mph4.3 kmh 30.06 in1017.9 mb 0.00 in0.0 mm 0.00 in0.0 mm 0.00 in0.0 mm
11:33 AM 31.8°F-0.1°C 25.0°F-3.9°C 76% 0.9 mph 1.4 kmh 2.7 mph4.3 kmh 30.05 in1017.6 mb 0.00 in0.0 mm 0.00 in0.0 mm 0.00 in0.0 mm
11:23 AM 31.3°F-0.4°C 25.0°F-3.9°C 77% 0.9 mph NW1.4 kmh NW 1.8 mph2.9 kmh 30.05 in1017.6 mb 0.00 in0.0 mm 0.00 in0.0 mm 0.00 in0.0 mm
11:18 AM 31.3°F-0.4°C 25.0°F-3.9°C 78% 0.9 mph NW1.4 kmh NW 1.8 mph2.9 kmh 30.06 in1017.9 mb 0.00 in0.0 mm 0.00 in0.0 mm 0.00 in0.0 mm
11:13 AM 30.9°F-0.6°C 25.0°F-3.9°C 79% 0.9 mph NW1.4 kmh NW 1.8 mph2.9 kmh 30.06 in1017.9 mb 0.00 in0.0 mm 0.00 in0.0 mm 0.00 in0.0 mm
11:08 AM 30.7°F-0.7°C 25.0°F-3.9°C 77% Calm Calm 1.8 mph2.9 kmh 30.06 in1017.9 mb 0.00 in0.0 mm 0.00 in0.0 mm 0.00 in0.0 mm
11:03 AM 30.9°F-0.6°C 25.0°F-3.9°C 78% 0.9 mph 1.4 kmh 1.8 mph2.9 kmh 30.06 in1017.9 mb 0.00 in0.0 mm 0.00 in0.0 mm 0.00 in0.0 mm
10:58 AM 30.6°F-0.8°C 25.0°F-3.9°C 79% Calm Calm 1.8 mph2.9 kmh 30.06 in1017.9 mb 0.00 in0.0 mm 0.00 in0.0 mm 0.00 in0.0 mm
10:53 AM 30.4°F-0.9°C 25.0°F-3.9°C 79% Calm Calm 1.8 mph2.9 kmh 30.06 in1017.9 mb 0.00 in0.0 mm 0.00 in0.0 mm 0.00 in0.0 mm
10:48 AM 29.8°F-1.2°C 25.0°F-3.9°C 80% Calm Calm 1.8 mph2.9 kmh 30.06 in1017.9 mb 0.00 in0.0 mm 0.00 in0.0 mm 0.00 in0.0 mm
10:43 AM 29.5°F-1.4°C 25.0°F-3.9°C 82% Calm Calm 0.9 mph1.4 kmh 30.06 in1017.9 mb 0.00 in0.0 mm 0.00 in0.0 mm 0.00 in0.0 mm
10:38 AM 29.1°F-1.6°C 25.0°F-3.9°C 83% 0.9 mph NE1.4 kmh NE 1.8 mph2.9 kmh 30.06 in1017.9 mb 0.00 in0.0 mm 0.00 in0.0 mm 0.00 in0.0 mm
10:33 AM 28.8°F-1.8°C 24.0°F-4.4°C 83% 0.9 mph 1.4 kmh 1.8 mph2.9 kmh 30.06 in1017.9 mb 0.00 in0.0 mm 0.00 in0.0 mm 0.00 in0.0 mm
10:28 AM 28.8°F-1.8°C 25.0°F-3.9°C 84% 0.9 mph 1.4 kmh 1.8 mph2.9 kmh 30.06 in1017.9 mb 0.00 in0.0 mm 0.00 in0.0 mm 0.00 in0.0 mm
10:23 AM 28.4°F-2.0°C 24.0°F-4.4°C 84% 0.9 mph 1.4 kmh 1.8 mph2.9 kmh 30.06 in1017.9 mb 0.00 in0.0 mm 0.00 in0.0 mm 0.00 in0.0 mm
10:18 AM 28.0°F-2.2°C 24.0°F-4.4°C 84% Calm Calm 1.8 mph2.9 kmh 30.06 in1017.9 mb 0.00 in0.0 mm 0.00 in0.0 mm 0.00 in0.0 mm
10:13 AM 27.7°F-2.4°C 24.0°F-4.4°C 84% 0.9 mph NE1.4 kmh NE 2.7 mph4.3 kmh 30.06 in1017.9 mb 0.00 in0.0 mm 0.00 in0.0 mm 0.00 in0.0 mm
10:08 AM 27.9°F-2.3°C 24.0°F-4.4°C 85% 0.9 mph 1.4 kmh 1.8 mph2.9 kmh 30.06 in1017.9 mb 0.00 in0.0 mm 0.00 in0.0 mm 0.00 in0.0 mm
10:03 AM 27.5°F-2.5°C 24.0°F-4.4°C 85% 0.9 mph NE1.4 kmh NE 2.7 mph4.3 kmh 30.06 in1017.9 mb 0.00 in0.0 mm 0.00 in0.0 mm 0.00 in0.0 mm
09:58 AM 27.7°F-2.4°C 24.0°F-4.4°C 86% 0.9 mph NE1.4 kmh NE 1.8 mph2.9 kmh 30.06 in1017.9 mb 0.00 in0.0 mm 0.00 in0.0 mm 0.00 in0.0 mm
09:53 AM 27.3°F-2.6°C 24.0°F-4.4°C 86% 0.9 mph NE1.4 kmh NE 1.8 mph2.9 kmh 30.06 in1017.9 mb 0.00 in0.0 mm 0.00 in0.0 mm 0.00 in0.0 mm
09:48 AM 27.1°F-2.7°C 24.0°F-4.4°C 87% Calm Calm 1.8 mph2.9 kmh 30.06 in1017.9 mb 0.00 in0.0 mm 0.00 in0.0 mm 0.00 in0.0 mm
09:43 AM 27.0°F-2.8°C 24.0°F-4.4°C 87% 0.9 mph NE1.4 kmh NE 1.8 mph2.9 kmh 30.06 in1017.9 mb 0.00 in0.0 mm 0.00 in0.0 mm 0.00 in0.0 mm
09:38 AM 26.8°F-2.9°C 24.0°F-4.4°C 87% 0.9 mph 1.4 kmh 2.7 mph4.3 kmh 30.06 in1017.9 mb 0.00 in0.0 mm 0.00 in0.0 mm 0.00 in0.0 mm
09:33 AM 26.8°F-2.9°C 24.0°F-4.4°C 88% 0.9 mph 1.4 kmh 3.6 mph5.8 kmh 30.06 in1017.9 mb 0.00 in0.0 mm 0.00 in0.0 mm 0.00 in0.0 mm
09:28 AM 26.4°F-3.1°C 24.0°F-4.4°C 88% 0.9 mph NW1.4 kmh NW 3.6 mph5.8 kmh 30.06 in1017.9 mb 0.00 in0.0 mm 0.00 in0.0 mm 0.00 in0.0 mm
09:23 AM 26.4°F-3.1°C 24.0°F-4.4°C 89% 0.9 mph 1.4 kmh 2.7 mph4.3 kmh 30.06 in1017.9 mb 0.00 in0.0 mm 0.00 in0.0 mm 0.00 in0.0 mm
09:18 AM 26.4°F-3.1°C 24.0°F-4.4°C 89% Calm Calm 1.8 mph2.9 kmh 30.06 in1017.9 mb 0.00 in0.0 mm 0.00 in0.0 mm 0.00 in0.0 mm
09:13 AM 26.2°F-3.2°C 24.0°F-4.4°C 89% Calm Calm 1.8 mph2.9 kmh 30.06 in1017.9 mb 0.00 in0.0 mm 0.00 in0.0 mm 0.00 in0.0 mm
09:08 AM 26.1°F-3.3°C 23.0°F-5.0°C 89% 0.9 mph 1.4 kmh 2.7 mph4.3 kmh 30.06 in1017.9 mb 0.00 in0.0 mm 0.00 in0.0 mm 0.00 in0.0 mm
09:03 AM 25.9°F-3.4°C 23.0°F-5.0°C 89% 0.9 mph 1.4 kmh 2.7 mph4.3 kmh 30.06 in1017.9 mb 0.00 in0.0 mm 0.00 in0.0 mm 0.00 in0.0 mm
08:58 AM 25.7°F-3.5°C 23.0°F-5.0°C 89% 0.9 mph 1.4 kmh 1.8 mph2.9 kmh 30.06 in1017.9 mb 0.00 in0.0 mm 0.00 in0.0 mm 0.00 in0.0 mm
08:53 AM 25.7°F-3.5°C 23.0°F-5.0°C 89% Calm Calm 1.8 mph2.9 kmh 30.06 in1017.9 mb 0.00 in0.0 mm 0.00 in0.0 mm 0.00 in0.0 mm
08:48 AM 25.7°F-3.5°C 23.0°F-5.0°C 89% Calm Calm 0.9 mph1.4 kmh 30.05 in1017.6 mb 0.00 in0.0 mm 0.00 in0.0 mm 0.00 in0.0 mm
08:43 AM 25.3°F-3.7°C 23.0°F-5.0°C 89% 0.9 mph 1.4 kmh 2.7 mph4.3 kmh 30.05 in1017.6 mb 0.00 in0.0 mm 0.00 in0.0 mm 0.00 in0.0 mm
08:38 AM 25.3°F-3.7°C 23.0°F-5.0°C 89% Calm Calm 1.8 mph2.9 kmh 30.05 in1017.6 mb 0.00 in0.0 mm 0.00 in0.0 mm 0.00 in0.0 mm
08:33 AM 25.3°F-3.7°C 23.0°F-5.0°C 89% Calm Calm 0.9 mph1.4 kmh 30.05 in1017.6 mb 0.00 in0.0 mm 0.00 in0.0 mm 0.00 in0.0 mm
08:28 AM 25.2°F-3.8°C 23.0°F-5.0°C 89% 0.9 mph 1.4 kmh 2.7 mph4.3 kmh 30.05 in1017.6 mb 0.00 in0.0 mm 0.00 in0.0 mm 0.00 in0.0 mm
08:23 AM 25.3°F-3.7°C 23.0°F-5.0°C 89% 0.9 mph NE1.4 kmh NE 2.7 mph4.3 kmh 30.05 in1017.6 mb 0.00 in0.0 mm 0.00 in0.0 mm 0.00 in0.0 mm
08:18 AM 25.2°F-3.8°C 23.0°F-5.0°C 89% 0.9 mph 1.4 kmh 2.7 mph4.3 kmh 30.05 in1017.6 mb 0.00 in0.0 mm 0.00 in0.0 mm 0.00 in0.0 mm
08:13 AM 25.3°F-3.7°C 23.0°F-5.0°C 89% 0.9 mph 1.4 kmh 1.8 mph2.9 kmh 30.05 in1017.6 mb 0.00 in0.0 mm 0.00 in0.0 mm 0.00 in0.0 mm
08:08 AM 25.5°F-3.6°C 23.0°F-5.0°C 90% Calm Calm 1.8 mph2.9 kmh 30.05 in1017.6 mb 0.00 in0.0 mm 0.00 in0.0 mm 0.00 in0.0 mm
08:03 AM 25.5°F-3.6°C 23.0°F-5.0°C 90% Calm Calm 1.8 mph2.9 kmh 30.05 in1017.6 mb 0.00 in0.0 mm 0.00 in0.0 mm 0.00 in0.0 mm
07:58 AM 25.5°F-3.6°C 23.0°F-5.0°C 90% Calm Calm 0.9 mph1.4 kmh 30.05 in1017.6 mb 0.00 in0.0 mm 0.00 in0.0 mm 0.00 in0.0 mm
07:53 AM 25.5°F-3.6°C 23.0°F-5.0°C 90% Calm Calm 1.8 mph2.9 kmh 30.04 in1017.3 mb 0.00 in0.0 mm 0.00 in0.0 mm 0.00 in0.0 mm
07:48 AM 25.5°F-3.6°C 23.0°F-5.0°C 90% Calm Calm 1.8 mph2.9 kmh 30.04 in1017.3 mb 0.00 in0.0 mm 0.00 in0.0 mm 0.00 in0.0 mm
07:43 AM 25.3°F-3.7°C 23.0°F-5.0°C 90% Calm Calm -- 30.04 in1017.3 mb 0.00 in0.0 mm 0.00 in0.0 mm 0.00 in0.0 mm
07:38 AM 25.3°F-3.7°C 23.0°F-5.0°C 90% Calm Calm 0.9 mph1.4 kmh 30.04 in1017.3 mb 0.00 in0.0 mm 0.00 in0.0 mm 0.00 in0.0 mm
07:33 AM 25.2°F-3.8°C 23.0°F-5.0°C 90% Calm Calm 0.9 mph1.4 kmh 30.04 in1017.3 mb 0.00 in0.0 mm 0.00 in0.0 mm 0.00 in0.0 mm
07:28 AM 25.2°F-3.8°C 23.0°F-5.0°C 90% Calm Calm 0.9 mph1.4 kmh 30.04 in1017.3 mb 0.00 in0.0 mm 0.00 in0.0 mm 0.00 in0.0 mm
07:23 AM 25.2°F-3.8°C 23.0°F-5.0°C 90% Calm Calm 1.8 mph2.9 kmh 30.04 in1017.3 mb 0.00 in0.0 mm 0.00 in0.0 mm 0.00 in0.0 mm
07:18 AM 25.2°F-3.8°C 23.0°F-5.0°C 89% Calm Calm 0.9 mph1.4 kmh 30.03 in1016.9 mb 0.00 in0.0 mm 0.00 in0.0 mm 0.00 in0.0 mm
07:13 AM 25.2°F-3.8°C 23.0°F-5.0°C 89% Calm Calm 1.8 mph2.9 kmh 30.03 in1016.9 mb 0.00 in0.0 mm 0.00 in0.0 mm 0.00 in0.0 mm
07:08 AM 25.0°F-3.9°C 22.0°F-5.6°C 89% Calm Calm 1.8 mph2.9 kmh 30.03 in1016.9 mb 0.00 in0.0 mm 0.00 in0.0 mm 0.00 in0.0 mm
07:03 AM 25.0°F-3.9°C 22.0°F-5.6°C 89% 0.9 mph NE1.4 kmh NE 2.7 mph4.3 kmh 30.03 in1016.9 mb 0.00 in0.0 mm 0.00 in0.0 mm 0.00 in0.0 mm
06:58 AM 25.0°F-3.9°C 23.0°F-5.0°C 90% 0.9 mph NE1.4 kmh NE 2.7 mph4.3 kmh 30.03 in1016.9 mb 0.00 in0.0 mm 0.00 in0.0 mm 0.00 in0.0 mm
06:53 AM 24.8°F-4.0°C 22.0°F-5.6°C 90% 0.9 mph NE1.4 kmh NE 1.8 mph2.9 kmh 30.03 in1016.9 mb 0.00 in0.0 mm 0.00 in0.0 mm 0.00 in0.0 mm
06:48 AM 24.6°F-4.1°C 22.0°F-5.6°C 90% Calm Calm 1.8 mph2.9 kmh 30.03 in1016.9 mb 0.00 in0.0 mm 0.00 in0.0 mm 0.00 in0.0 mm
06:43 AM 24.6°F-4.1°C 22.0°F-5.6°C 90% Calm Calm 0.9 mph1.4 kmh 30.03 in1016.9 mb 0.00 in0.0 mm 0.00 in0.0 mm 0.00 in0.0 mm
06:38 AM 24.4°F-4.2°C 22.0°F-5.6°C 90% 0.9 mph NE1.4 kmh NE 1.8 mph2.9 kmh 30.03 in1016.9 mb 0.00 in0.0 mm 0.00 in0.0 mm 0.00 in0.0 mm
06:33 AM 24.3°F-4.3°C 22.0°F-5.6°C 90% Calm Calm 1.8 mph2.9 kmh 30.04 in1017.3 mb 0.00 in0.0 mm 0.00 in0.0 mm 0.00 in0.0 mm
06:28 AM 24.3°F-4.3°C 22.0°F-5.6°C 89% Calm Calm 0.9 mph1.4 kmh 30.04 in1017.3 mb 0.00 in0.0 mm 0.00 in0.0 mm 0.00 in0.0 mm
06:23 AM 24.3°F-4.3°C 22.0°F-5.6°C 90% Calm Calm 1.8 mph2.9 kmh 30.04 in1017.3 mb 0.00 in0.0 mm 0.00 in0.0 mm 0.00 in0.0 mm
06:18 AM 24.3°F-4.3°C 22.0°F-5.6°C 90% 0.9 mph NE1.4 kmh NE 2.7 mph4.3 kmh 30.04 in1017.3 mb 0.00 in0.0 mm 0.00 in0.0 mm 0.00 in0.0 mm
06:13 AM 24.1°F-4.4°C 22.0°F-5.6°C 90% Calm Calm 0.9 mph1.4 kmh 30.04 in1017.3 mb 0.00 in0.0 mm 0.00 in0.0 mm 0.00 in0.0 mm
06:08 AM 24.1°F-4.4°C 22.0°F-5.6°C 90% 0.9 mph 1.4 kmh 1.8 mph2.9 kmh 30.04 in1017.3 mb 0.00 in0.0 mm 0.00 in0.0 mm 0.00 in0.0 mm
06:03 AM 24.1°F-4.4°C 22.0°F-5.6°C 90% 0.9 mph 1.4 kmh 2.7 mph4.3 kmh 30.04 in1017.3 mb 0.00 in0.0 mm 0.00 in0.0 mm 0.00 in0.0 mm
05:58 AM 23.9°F-4.5°C 22.0°F-5.6°C 90% 0.9 mph 1.4 kmh 1.8 mph2.9 kmh 30.04 in1017.3 mb 0.00 in0.0 mm 0.00 in0.0 mm 0.00 in0.0 mm
05:53 AM 23.9°F-4.5°C 22.0°F-5.6°C 90% 0.9 mph 1.4 kmh 1.8 mph2.9 kmh 30.04 in1017.3 mb 0.00 in0.0 mm 0.00 in0.0 mm 0.00 in0.0 mm
05:48 AM 23.9°F-4.5°C 22.0°F-5.6°C 90% Calm Calm 1.8 mph2.9 kmh 30.04 in1017.3 mb 0.00 in0.0 mm 0.00 in0.0 mm 0.00 in0.0 mm
05:43 AM 23.9°F-4.5°C 21.0°F-6.1°C 89% Calm Calm 1.8 mph2.9 kmh 30.04 in1017.3 mb 0.00 in0.0 mm 0.00 in0.0 mm 0.00 in0.0 mm
05:38 AM 23.7°F-4.6°C 21.0°F-6.1°C 89% Calm Calm 1.8 mph2.9 kmh 30.04 in1017.3 mb 0.00 in0.0 mm 0.00 in0.0 mm 0.00 in0.0 mm
05:33 AM 23.5°F-4.7°C 21.0°F-6.1°C 90% Calm Calm 0.9 mph1.4 kmh 30.04 in1017.3 mb 0.00 in0.0 mm 0.00 in0.0 mm 0.00 in0.0 mm
05:28 AM 23.5°F-4.7°C 21.0°F-6.1°C 90% Calm Calm 1.8 mph2.9 kmh 30.04 in1017.3 mb 0.00 in0.0 mm 0.00 in0.0 mm 0.00 in0.0 mm
05:23 AM 23.2°F-4.9°C 21.0°F-6.1°C 89% Calm Calm 1.8 mph2.9 kmh 30.04 in1017.3 mb 0.00 in0.0 mm 0.00 in0.0 mm 0.00 in0.0 mm
05:18 AM 23.2°F-4.9°C 21.0°F-6.1°C 90% Calm Calm 2.7 mph4.3 kmh 30.04 in1017.3 mb 0.00 in0.0 mm 0.00 in0.0 mm 0.00 in0.0 mm
05:13 AM 23.0°F-5.0°C 21.0°F-6.1°C 90% 0.9 mph 1.4 kmh 1.8 mph2.9 kmh 30.04 in1017.3 mb 0.00 in0.0 mm 0.00 in0.0 mm 0.00 in0.0 mm
05:08 AM 23.0°F-5.0°C 21.0°F-6.1°C 90% 0.9 mph NE1.4 kmh NE 2.7 mph4.3 kmh 30.04 in1017.3 mb 0.00 in0.0 mm 0.00 in0.0 mm 0.00 in0.0 mm
05:03 AM 22.8°F-5.1°C 21.0°F-6.1°C 90% 0.9 mph 1.4 kmh 2.7 mph4.3 kmh 30.04 in1017.3 mb 0.00 in0.0 mm 0.00 in0.0 mm 0.00 in0.0 mm
04:58 AM 22.8°F-5.1°C 21.0°F-6.1°C 90% Calm Calm 1.8 mph2.9 kmh 30.04 in1017.3 mb 0.00 in0.0 mm 0.00 in0.0 mm 0.00 in0.0 mm
04:53 AM 22.8°F-5.1°C 21.0°F-6.1°C 90% 0.9 mph 1.4 kmh 2.7 mph4.3 kmh 30.05 in1017.6 mb 0.00 in0.0 mm 0.00 in0.0 mm 0.00 in0.0 mm
04:48 AM 22.6°F-5.2°C 20.0°F-6.7°C 90% 0.9 mph 1.4 kmh 2.7 mph4.3 kmh 30.05 in1017.6 mb 0.00 in0.0 mm 0.00 in0.0 mm 0.00 in0.0 mm
04:43 AM 22.6°F-5.2°C 20.0°F-6.7°C 89% 0.9 mph NE1.4 kmh NE 1.8 mph2.9 kmh 30.05 in1017.6 mb 0.00 in0.0 mm 0.00 in0.0 mm 0.00 in0.0 mm
04:38 AM 22.6°F-5.2°C 20.0°F-6.7°C 89% 0.9 mph 1.4 kmh 2.7 mph4.3 kmh 30.05 in1017.6 mb 0.00 in0.0 mm 0.00 in0.0 mm 0.00 in0.0 mm
04:33 AM 22.5°F-5.3°C 20.0°F-6.7°C 89% 0.9 mph 1.4 kmh 2.7 mph4.3 kmh 30.05 in1017.6 mb 0.00 in0.0 mm 0.00 in0.0 mm 0.00 in0.0 mm
04:28 AM 22.5°F-5.3°C 20.0°F-6.7°C 89% 1.8 mph 2.9 kmh 3.6 mph5.8 kmh 30.05 in1017.6 mb 0.00 in0.0 mm 0.00 in0.0 mm 0.00 in0.0 mm
04:23 AM 22.5°F-5.3°C 20.0°F-6.7°C 89% 0.9 mph 1.4 kmh 2.7 mph4.3 kmh 30.05 in1017.6 mb 0.00 in0.0 mm 0.00 in0.0 mm 0.00 in0.0 mm
04:18 AM 22.5°F-5.3°C 20.0°F-6.7°C 89% 0.9 mph 1.4 kmh 2.7 mph4.3 kmh 30.05 in1017.6 mb 0.00 in0.0 mm 0.00 in0.0 mm 0.00 in0.0 mm
04:13 AM 22.5°F-5.3°C 20.0°F-6.7°C 89% 1.8 mph 2.9 kmh 3.6 mph5.8 kmh 30.05 in1017.6 mb 0.00 in0.0 mm 0.00 in0.0 mm 0.00 in0.0 mm
04:08 AM 22.3°F-5.4°C 20.0°F-6.7°C 89% 0.9 mph NE1.4 kmh NE 2.7 mph4.3 kmh 30.05 in1017.6 mb 0.00 in0.0 mm 0.00 in0.0 mm 0.00 in0.0 mm
04:03 AM 22.5°F-5.3°C 20.0°F-6.7°C 89% 1.8 mph NE2.9 kmh NE 2.7 mph4.3 kmh 30.05 in1017.6 mb 0.00 in0.0 mm 0.00 in0.0 mm 0.00 in0.0 mm
03:58 AM 22.6°F-5.2°C 20.0°F-6.7°C 89% 1.8 mph NE2.9 kmh NE 3.6 mph5.8 kmh 30.05 in1017.6 mb 0.00 in0.0 mm 0.00 in0.0 mm 0.00 in0.0 mm
03:53 AM 22.6°F-5.2°C 20.0°F-6.7°C 89% 1.8 mph 2.9 kmh 3.6 mph5.8 kmh 30.05 in1017.6 mb 0.00 in0.0 mm 0.00 in0.0 mm 0.00 in0.0 mm
03:48 AM 22.5°F-5.3°C 20.0°F-6.7°C 89% 1.8 mph NE2.9 kmh NE 3.6 mph5.8 kmh 30.05 in1017.6 mb 0.00 in0.0 mm 0.00 in0.0 mm 0.00 in0.0 mm
03:43 AM 22.5°F-5.3°C 20.0°F-6.7°C 89% 0.9 mph NE1.4 kmh NE 2.7 mph4.3 kmh 30.05 in1017.6 mb 0.00 in0.0 mm 0.00 in0.0 mm 0.00 in0.0 mm
03:38 AM 22.3°F-5.4°C 20.0°F-6.7°C 89% 0.9 mph NE1.4 kmh NE 3.6 mph5.8 kmh 30.06 in1017.9 mb 0.00 in0.0 mm 0.00 in0.0 mm 0.00 in0.0 mm
03:33 AM 22.3°F-5.4°C 20.0°F-6.7°C 89% 1.8 mph 2.9 kmh 3.6 mph5.8 kmh 30.06 in1017.9 mb 0.00 in0.0 mm 0.00 in0.0 mm 0.00 in0.0 mm
03:28 AM 22.3°F-5.4°C 20.0°F-6.7°C 89% 1.8 mph NE2.9 kmh NE 2.7 mph4.3 kmh 30.06 in1017.9 mb 0.00 in0.0 mm 0.00 in0.0 mm 0.00 in0.0 mm
03:23 AM 22.3°F-5.4°C 20.0°F-6.7°C 89% 1.8 mph NE2.9 kmh NE 3.6 mph5.8 kmh 30.06 in1017.9 mb 0.00 in0.0 mm 0.00 in0.0 mm 0.00 in0.0 mm
03:18 AM 22.3°F-5.4°C 20.0°F-6.7°C 89% 1.8 mph 2.9 kmh 3.6 mph5.8 kmh 30.06 in1017.9 mb 0.00 in0.0 mm 0.00 in0.0 mm 0.00 in0.0 mm
03:13 AM 22.5°F-5.3°C 20.0°F-6.7°C 88% 1.8 mph NE2.9 kmh NE 2.7 mph4.3 kmh 30.06 in1017.9 mb 0.00 in0.0 mm 0.00 in0.0 mm 0.00 in0.0 mm
03:08 AM 22.6°F-5.2°C 20.0°F-6.7°C 88% 0.9 mph NE1.4 kmh NE 3.6 mph5.8 kmh 30.06 in1017.9 mb 0.00 in0.0 mm 0.00 in0.0 mm 0.00 in0.0 mm
03:03 AM 23.0°F-5.0°C 20.0°F-6.7°C 87% 1.8 mph 2.9 kmh 3.6 mph5.8 kmh 30.06 in1017.9 mb 0.00 in0.0 mm 0.00 in0.0 mm 0.00 in0.0 mm
02:58 AM 23.4°F-4.8°C 21.0°F-6.1°C 88% 1.8 mph NE2.9 kmh NE 4.5 mph7.2 kmh 30.06 in1017.9 mb 0.00 in0.0 mm 0.00 in0.0 mm 0.00 in0.0 mm
02:53 AM 23.5°F-4.7°C 21.0°F-6.1°C 88% 1.8 mph 2.9 kmh 4.5 mph7.2 kmh 30.06 in1017.9 mb 0.00 in0.0 mm 0.00 in0.0 mm 0.00 in0.0 mm
02:48 AM 23.7°F-4.6°C 21.0°F-6.1°C 88% 0.9 mph NE1.4 kmh NE 3.6 mph5.8 kmh 30.06 in1017.9 mb 0.00 in0.0 mm 0.00 in0.0 mm 0.00 in0.0 mm
02:43 AM 23.7°F-4.6°C 21.0°F-6.1°C 88% 0.9 mph 1.4 kmh 2.7 mph4.3 kmh 30.06 in1017.9 mb 0.00 in0.0 mm 0.00 in0.0 mm 0.00 in0.0 mm
02:38 AM 23.7°F-4.6°C 21.0°F-6.1°C 87% 1.8 mph E2.9 kmh E 2.7 mph4.3 kmh 30.07 in1018.3 mb 0.00 in0.0 mm 0.00 in0.0 mm 0.00 in0.0 mm
02:33 AM 23.7°F-4.6°C 21.0°F-6.1°C 87% 1.8 mph 2.9 kmh 3.6 mph5.8 kmh 30.07 in1018.3 mb 0.00 in0.0 mm 0.00 in0.0 mm 0.00 in0.0 mm
02:28 AM 23.7°F-4.6°C 21.0°F-6.1°C 87% 1.8 mph NE2.9 kmh NE 3.6 mph5.8 kmh 30.06 in1017.9 mb 0.00 in0.0 mm 0.00 in0.0 mm 0.00 in0.0 mm
02:23 AM 23.9°F-4.5°C 21.0°F-6.1°C 88% 1.8 mph NE2.9 kmh NE 2.7 mph4.3 kmh 30.06 in1017.9 mb 0.00 in0.0 mm 0.00 in0.0 mm 0.00 in0.0 mm
02:18 AM 23.7°F-4.6°C 21.0°F-6.1°C 88% 1.8 mph NE2.9 kmh NE 3.6 mph5.8 kmh 30.07 in1018.3 mb 0.00 in0.0 mm 0.00 in0.0 mm 0.00 in0.0 mm
02:13 AM 23.4°F-4.8°C 21.0°F-6.1°C 89% 0.9 mph NE1.4 kmh NE 2.7 mph4.3 kmh 30.07 in1018.3 mb 0.00 in0.0 mm 0.00 in0.0 mm 0.00 in0.0 mm
02:08 AM 23.2°F-4.9°C 21.0°F-6.1°C 89% 0.9 mph NE1.4 kmh NE 2.7 mph4.3 kmh 30.07 in1018.3 mb 0.00 in0.0 mm 0.00 in0.0 mm 0.00 in0.0 mm
02:03 AM 23.0°F-5.0°C 20.0°F-6.7°C 89% 0.9 mph NE1.4 kmh NE 2.7 mph4.3 kmh 30.08 in1018.6 mb 0.00 in0.0 mm 0.00 in0.0 mm 0.00 in0.0 mm
01:58 AM 22.8°F-5.1°C 21.0°F-6.1°C 90% 0.9 mph E1.4 kmh E 1.8 mph2.9 kmh 30.08 in1018.6 mb 0.00 in0.0 mm 0.00 in0.0 mm 0.00 in0.0 mm
01:53 AM 22.6°F-5.2°C 20.0°F-6.7°C 90% 0.9 mph 1.4 kmh 2.7 mph4.3 kmh 30.08 in1018.6 mb 0.00 in0.0 mm 0.00 in0.0 mm 0.00 in0.0 mm
01:48 AM 22.5°F-5.3°C 20.0°F-6.7°C 91% Calm Calm 0.9 mph1.4 kmh 30.08 in1018.6 mb 0.00 in0.0 mm 0.00 in0.0 mm 0.00 in0.0 mm
01:43 AM 22.3°F-5.4°C 20.0°F-6.7°C 91% Calm Calm 1.8 mph2.9 kmh 30.08 in1018.6 mb 0.00 in0.0 mm 0.00 in0.0 mm 0.00 in0.0 mm
01:38 AM 22.5°F-5.3°C 20.0°F-6.7°C 90% 0.9 mph 1.4 kmh 1.8 mph2.9 kmh 30.08 in1018.6 mb 0.00 in0.0 mm 0.00 in0.0 mm 0.00 in0.0 mm
01:33 AM 22.3°F-5.4°C 20.0°F-6.7°C 90% 1.8 mph NE2.9 kmh NE 2.7 mph4.3 kmh 30.07 in1018.3 mb 0.00 in0.0 mm 0.00 in0.0 mm 0.00 in0.0 mm
01:28 AM 22.1°F-5.5°C 20.0°F-6.7°C 91% 0.9 mph NE1.4 kmh NE 1.8 mph2.9 kmh 30.08 in1018.6 mb 0.00 in0.0 mm 0.00 in0.0 mm 0.00 in0.0 mm
01:23 AM 22.1°F-5.5°C 20.0°F-6.7°C 91% 0.9 mph NE1.4 kmh NE 1.8 mph2.9 kmh 30.08 in1018.6 mb 0.00 in0.0 mm 0.00 in0.0 mm 0.00 in0.0 mm
01:18 AM 22.1°F-5.5°C 20.0°F-6.7°C 91% 0.9 mph NE1.4 kmh NE 2.7 mph4.3 kmh 30.08 in1018.6 mb 0.00 in0.0 mm 0.00 in0.0 mm 0.00 in0.0 mm
01:13 AM 21.9°F-5.6°C 20.0°F-6.7°C 91% 0.9 mph NE1.4 kmh NE 1.8 mph2.9 kmh 30.09 in1019.0 mb 0.00 in0.0 mm 0.00 in0.0 mm 0.00 in0.0 mm
01:08 AM 21.9°F-5.6°C 20.0°F-6.7°C 92% 1.8 mph NE2.9 kmh NE 3.6 mph5.8 kmh 30.09 in1019.0 mb 0.00 in0.0 mm 0.00 in0.0 mm 0.00 in0.0 mm
01:03 AM 21.2°F-6.0°C 20.0°F-6.7°C 93% 0.9 mph NE1.4 kmh NE 2.7 mph4.3 kmh 30.09 in1019.0 mb 0.00 in0.0 mm 0.00 in0.0 mm 0.00 in0.0 mm
12:58 AM 20.5°F-6.4°C 19.0°F-7.2°C 93% Calm Calm 1.8 mph2.9 kmh 30.09 in1019.0 mb 0.00 in0.0 mm 0.00 in0.0 mm 0.00 in0.0 mm
12:53 AM 20.5°F-6.4°C 19.0°F-7.2°C 93% 0.9 mph NE1.4 kmh NE 1.8 mph2.9 kmh 30.09 in1019.0 mb 0.00 in0.0 mm 0.00 in0.0 mm 0.00 in0.0 mm
12:48 AM 20.1°F-6.6°C 19.0°F-7.2°C 93% Calm Calm 0.9 mph1.4 kmh 30.09 in1019.0 mb 0.00 in0.0 mm 0.00 in0.0 mm 0.00 in0.0 mm
12:43 AM 19.9°F-6.7°C 18.0°F-7.8°C 93% Calm Calm 0.9 mph1.4 kmh 30.10 in1019.3 mb 0.00 in0.0 mm 0.00 in0.0 mm 0.00 in0.0 mm
12:38 AM 19.9°F-6.7°C 18.0°F-7.8°C 93% Calm Calm 0.9 mph1.4 kmh 30.10 in1019.3 mb 0.00 in0.0 mm 0.00 in0.0 mm 0.00 in0.0 mm
12:33 AM 19.8°F-6.8°C 18.0°F-7.8°C 93% Calm Calm 0.9 mph1.4 kmh 30.10 in1019.3 mb 0.00 in0.0 mm 0.00 in0.0 mm 0.00 in0.0 mm
12:28 AM 19.8°F-6.8°C 18.0°F-7.8°C 93% Calm Calm 0.9 mph1.4 kmh 30.10 in1019.3 mb 0.00 in0.0 mm 0.00 in0.0 mm 0.00 in0.0 mm
12:23 AM 19.9°F-6.7°C 18.0°F-7.8°C 92% Calm Calm 0.9 mph1.4 kmh 30.10 in1019.3 mb 0.00 in0.0 mm 0.00 in0.0 mm 0.00 in0.0 mm
12:18 AM 19.9°F-6.7°C 18.0°F-7.8°C 92% Calm Calm 0.9 mph1.4 kmh 30.10 in1019.3 mb 0.00 in0.0 mm 0.00 in0.0 mm 0.00 in0.0 mm
12:13 AM 19.9°F-6.7°C 18.0°F-7.8°C 92% Calm Calm 0.9 mph1.4 kmh 30.10 in1019.3 mb 0.00 in0.0 mm 0.00 in0.0 mm 0.00 in0.0 mm
12:08 AM 20.1°F-6.6°C 18.0°F-7.8°C 92% 0.9 mph NE1.4 kmh NE 1.8 mph2.9 kmh 30.10 in1019.3 mb 0.00 in0.0 mm 0.00 in0.0 mm 0.00 in0.0 mm
12:03 AM 20.1°F-6.6°C 18.0°F-7.8°C 92% Calm Calm 0.9 mph1.4 kmh 30.10 in1019.3 mb 0.00 in0.0 mm 0.00 in0.0 mm 0.00 in0.0 mm